Holden Beach 's weather forecast for the week

Current weather in Holden Beach

Weather

Partly cloudy
Cloud cover 13%

Temperature

75°F
Minimum 75°F
Maximum 78°F

Wind

9 mph
Wind gust 40 mph

Humidity

84%
Dew point 69°F
Temp Feels Precip Humidity
00:00am Patchy rain possible 77°F 81°F 0.6 mm 82%
03:00am Light rain shower 75°F 80°F 1.9 mm 82%
06:00am Moderate or heavy rain shower 75°F 79°F 2.9 mm 83%
09:00am Partly cloudy 75°F 78°F 0 mm 83%
12:00pm Partly cloudy 76°F 80°F 0 mm 78%
15:00pm Sunny 78°F 82°F 0 mm 81%
18:00pm Partly cloudy 75°F 79°F 0 mm 89%
21:00pm Partly cloudy 75°F 78°F 0 mm 84%
Temp Feels Precip Humidity
00:00am Partly cloudy 74°F 78°F 0 mm 82%
03:00am Partly cloudy 74°F 77°F 0 mm 76%
06:00am Partly cloudy 74°F 77°F 0 mm 71%
09:00am Partly cloudy 74°F 77°F 0 mm 66%
12:00pm Partly cloudy 74°F 77°F 0 mm 61%
15:00pm Sunny 74°F 77°F 0 mm 60%
18:00pm Partly cloudy 76°F 79°F 0 mm 63%
21:00pm Partly cloudy 77°F 80°F 0 mm 67%
Temp Feels Precip Humidity
00:00am Partly cloudy 77°F 80°F 0 mm 69%
03:00am Partly cloudy 76°F 80°F 0 mm 70%
06:00am Partly cloudy 78°F 79°F 0 mm 71%
09:00am Partly cloudy 76°F 79°F 0 mm 71%
12:00pm Partly cloudy 76°F 79°F 0 mm 75%
15:00pm Partly cloudy 77°F 80°F 0 mm 76%
18:00pm Partly cloudy 78°F 81°F 0 mm 78%
21:00pm Partly cloudy 78°F 82°F 0 mm 80%
Temp Feels Precip Humidity
00:00am Partly cloudy 77°F 81°F 0 mm 81%
03:00am Partly cloudy 78°F 81°F 0 mm 81%
06:00am Partly cloudy 82°F 79°F 0 mm 78%
09:00am Partly cloudy 78°F 81°F 0 mm 75%
12:00pm Partly cloudy 81°F 86°F 0 mm 72%
15:00pm Partly cloudy 82°F 88°F 0 mm 74%
18:00pm Partly cloudy 82°F 88°F 0 mm 75%
21:00pm Partly cloudy 80°F 86°F 0 mm 82%
Temp Feels Precip Humidity
00:00am Partly cloudy 78°F 84°F 0 mm 88%
03:00am Partly cloudy 77°F 84°F 0 mm 89%
06:00am Partly cloudy 78°F 83°F 0 mm 89%
09:00am Partly cloudy 77°F 82°F 0 mm 89%
12:00pm Partly cloudy 77°F 82°F 0 mm 88%
15:00pm Partly cloudy 78°F 84°F 0 mm 89%
18:00pm Partly cloudy 78°F 84°F 0 mm 90%
21:00pm Partly cloudy 78°F 85°F 0 mm 91%
Temp Feels Precip Humidity
00:00am Partly cloudy 79°F 85°F 0 mm 90%
03:00am Partly cloudy 80°F 84°F 0 mm 85%
06:00am Partly cloudy 82°F 82°F 0 mm 83%
09:00am Partly cloudy 80°F 85°F 0 mm 77%
12:00pm Partly cloudy 83°F 89°F 0 mm 70%
15:00pm Partly cloudy 86°F 92°F 0 mm 64%
18:00pm Partly cloudy 82°F 87°F 0 mm 76%
21:00pm Thundery outbreaks possible 81°F 86°F 0 mm 76%
Temp Feels Precip Humidity
00:00am Partly cloudy 77°F 81°F 0 mm 81%
03:00am Cloudy 72°F 80°F 0 mm 81%
06:00am Light rain shower 73°F 77°F 0.2 mm 81%
09:00am Patchy rain possible 72°F 76°F 0.1 mm 72%
12:00pm Partly cloudy 73°F 77°F 0 mm 69%
15:00pm Partly cloudy 73°F 77°F 0 mm 74%
18:00pm Partly cloudy 73°F 77°F 0 mm 78%
21:00pm Cloudy 74°F 77°F 0 mm 81%

Save your favorite locations, unlock more tidal information, less advertising and more...

Sign in to Tideschart with your Facebook account in one easy click (it's FREE!)